sensor_id;sensor_type;location;lat;lon;timestamp;temperature;humidity
32296;DHT22;18781;51.550;5.418;2022-12-11T00:02:03;4.80;73.20
32296;DHT22;18781;51.550;5.418;2022-12-11T00:04:29;4.90;73.30
32296;DHT22;18781;51.550;5.418;2022-12-11T00:06:55;4.90;73.40
32296;DHT22;18781;51.550;5.418;2022-12-11T00:09:21;4.90;73.40
32296;DHT22;18781;51.550;5.418;2022-12-11T00:11:47;4.90;73.40
32296;DHT22;18781;51.550;5.418;2022-12-11T00:14:13;4.90;73.40
32296;DHT22;18781;51.550;5.418;2022-12-11T00:16:40;4.90;73.40
32296;DHT22;18781;51.550;5.418;2022-12-11T00:19:08;4.90;73.40
32296;DHT22;18781;51.550;5.418;2022-12-11T00:21:35;4.90;73.50
32296;DHT22;18781;51.550;5.418;2022-12-11T00:24:01;4.90;73.40
32296;DHT22;18781;51.550;5.418;2022-12-11T00:26:26;4.90;73.40
32296;DHT22;18781;51.550;5.418;2022-12-11T00:28:55;4.90;73.40
32296;DHT22;18781;51.550;5.418;2022-12-11T00:31:22;4.90;73.40
32296;DHT22;18781;51.550;5.418;2022-12-11T00:33:48;4.90;73.30
32296;DHT22;18781;51.550;5.418;2022-12-11T00:36:17;4.90;73.30
32296;DHT22;18781;51.550;5.418;2022-12-11T00:38:43;4.90;73.30
32296;DHT22;18781;51.550;5.418;2022-12-11T00:41:09;4.90;73.20
32296;DHT22;18781;51.550;5.418;2022-12-11T00:43:35;4.90;73.20
32296;DHT22;18781;51.550;5.418;2022-12-11T00:46:00;4.90;73.30
32296;DHT22;18781;51.550;5.418;2022-12-11T00:48:26;4.90;73.30
32296;DHT22;18781;51.550;5.418;2022-12-11T00:50:51;4.90;73.30
32296;DHT22;18781;51.550;5.418;2022-12-11T00:53:17;4.90;73.40
32296;DHT22;18781;51.550;5.418;2022-12-11T00:55:43;4.90;73.30
32296;DHT22;18781;51.550;5.418;2022-12-11T00:58:09;5.00;73.40
32296;DHT22;18781;51.550;5.418;2022-12-11T01:00:35;4.90;73.30
32296;DHT22;18781;51.550;5.418;2022-12-11T01:03:01;4.90;73.40
32296;DHT22;18781;51.550;5.418;2022-12-11T01:05:27;4.90;73.40
32296;DHT22;18781;51.550;5.418;2022-12-11T01:07:52;4.90;73.40
32296;DHT22;18781;51.550;5.418;2022-12-11T01:10:18;5.00;73.50
32296;DHT22;18781;51.550;5.418;2022-12-11T01:12:55;5.00;73.50
32296;DHT22;18781;51.550;5.418;2022-12-11T01:15:24;5.00;73.50
32296;DHT22;18781;51.550;5.418;2022-12-11T01:17:50;5.00;73.50
32296;DHT22;18781;51.550;5.418;2022-12-11T01:20:16;5.00;73.40
32296;DHT22;18781;51.550;5.418;2022-12-11T01:22:42;5.00;73.40
32296;DHT22;18781;51.550;5.418;2022-12-11T01:25:08;5.00;73.50
32296;DHT22;18781;51.550;5.418;2022-12-11T01:27:35;5.00;73.50
32296;DHT22;18781;51.550;5.418;2022-12-11T01:30:00;5.10;74.10
32296;DHT22;18781;51.550;5.418;2022-12-11T01:32:27;5.10;73.50
32296;DHT22;18781;51.550;5.418;2022-12-11T01:34:53;5.00;73.40
32296;DHT22;18781;51.550;5.418;2022-12-11T01:37:18;5.10;73.40
32296;DHT22;18781;51.550;5.418;2022-12-11T01:39:44;5.10;73.40
32296;DHT22;18781;51.550;5.418;2022-12-11T01:42:16;5.10;73.40
32296;DHT22;18781;51.550;5.418;2022-12-11T01:47:07;5.10;73.30
32296;DHT22;18781;51.550;5.418;2022-12-11T01:49:32;5.10;73.30
32296;DHT22;18781;51.550;5.418;2022-12-11T01:52:04;5.10;73.30
32296;DHT22;18781;51.550;5.418;2022-12-11T01:54:31;5.10;73.30
32296;DHT22;18781;51.550;5.418;2022-12-11T01:57:01;5.10;73.30
32296;DHT22;18781;51.550;5.418;2022-12-11T01:59:28;5.10;73.30
32296;DHT22;18781;51.550;5.418;2022-12-11T02:02:03;5.10;73.20
32296;DHT22;18781;51.550;5.418;2022-12-11T02:04:31;5.10;73.30
32296;DHT22;18781;51.550;5.418;2022-12-11T02:06:57;5.10;73.20
32296;DHT22;18781;51.550;5.418;2022-12-11T02:09:26;5.10;73.30
32296;DHT22;18781;51.550;5.418;2022-12-11T02:20:53;5.10;73.40
32296;DHT22;18781;51.550;5.418;2022-12-11T02:29:01;5.10;73.50
32296;DHT22;18781;51.550;5.418;2022-12-11T02:31:48;5.10;73.10
32296;DHT22;18781;51.550;5.418;2022-12-11T02:34:24;5.10;73.30
32296;DHT22;18781;51.550;5.418;2022-12-11T02:36:56;5.10;73.30
32296;DHT22;18781;51.550;5.418;2022-12-11T02:39:24;5.10;73.30
32296;DHT22;18781;51.550;5.418;2022-12-11T02:41:52;5.20;73.40
32296;DHT22;18781;51.550;5.418;2022-12-11T02:44:23;5.10;73.30
32296;DHT22;18781;51.550;5.418;2022-12-11T02:46:50;5.20;73.40
32296;DHT22;18781;51.550;5.418;2022-12-11T02:49:17;5.20;73.40
32296;DHT22;18781;51.550;5.418;2022-12-11T02:51:43;5.20;73.30
32296;DHT22;18781;51.550;5.418;2022-12-11T02:54:35;5.20;73.30
32296;DHT22;18781;51.550;5.418;2022-12-11T02:57:16;5.20;73.40
32296;DHT22;18781;51.550;5.418;2022-12-11T02:59:45;5.20;73.20
32296;DHT22;18781;51.550;5.418;2022-12-11T03:02:12;5.20;73.20
32296;DHT22;18781;51.550;5.418;2022-12-11T03:04:38;5.20;73.20
32296;DHT22;18781;51.550;5.418;2022-12-11T03:07:12;5.20;73.10
32296;DHT22;18781;51.550;5.418;2022-12-11T03:09:42;5.20;73.00
32296;DHT22;18781;51.550;5.418;2022-12-11T03:12:10;5.20;73.00
32296;DHT22;18781;51.550;5.418;2022-12-11T03:14:38;5.20;73.10
32296;DHT22;18781;51.550;5.418;2022-12-11T03:17:14;5.20;73.10
32296;DHT22;18781;51.550;5.418;2022-12-11T03:22:50;5.20;72.90
32296;DHT22;18781;51.550;5.418;2022-12-11T03:25:35;5.20;72.90
32296;DHT22;18781;51.550;5.418;2022-12-11T03:28:09;5.20;72.90
32296;DHT22;18781;51.550;5.418;2022-12-11T03:30:36;5.10;72.80
32296;DHT22;18781;51.550;5.418;2022-12-11T03:33:13;5.10;72.80
32296;DHT22;18781;51.550;5.418;2022-12-11T03:35:43;5.10;72.80
32296;DHT22;18781;51.550;5.418;2022-12-11T03:38:15;5.10;72.80
32296;DHT22;18781;51.550;5.418;2022-12-11T03:40:45;5.10;72.80
32296;DHT22;18781;51.550;5.418;2022-12-11T03:43:13;5.10;72.80
32296;DHT22;18781;51.550;5.418;2022-12-11T03:45:40;5.10;72.80
32296;DHT22;18781;51.550;5.418;2022-12-11T03:48:08;5.10;72.80
32296;DHT22;18781;51.550;5.418;2022-12-11T03:50:34;5.10;72.70
32296;DHT22;18781;51.550;5.418;2022-12-11T03:53:02;5.10;72.70
32296;DHT22;18781;51.550;5.418;2022-12-11T03:55:29;5.10;72.50
32296;DHT22;18781;51.550;5.418;2022-12-11T03:57:56;5.10;72.40
32296;DHT22;18781;51.550;5.418;2022-12-11T04:00:22;5.10;72.30
32296;DHT22;18781;51.550;5.418;2022-12-11T04:02:48;5.10;72.30
32296;DHT22;18781;51.550;5.418;2022-12-11T04:05:34;5.00;72.30
32296;DHT22;18781;51.550;5.418;2022-12-11T04:08:00;5.00;72.50
32296;DHT22;18781;51.550;5.418;2022-12-11T04:10:27;5.00;72.50
32296;DHT22;18781;51.550;5.418;2022-12-11T04:12:52;5.00;72.50
32296;DHT22;18781;51.550;5.418;2022-12-11T04:15:18;5.00;72.60
32296;DHT22;18781;51.550;5.418;2022-12-11T04:17:44;5.00;72.60
32296;DHT22;18781;51.550;5.418;2022-12-11T04:20:28;5.00;72.60
32296;DHT22;18781;51.550;5.418;2022-12-11T04:23:14;5.00;72.50
32296;DHT22;18781;51.550;5.418;2022-12-11T04:26:07;5.00;72.50
32296;DHT22;18781;51.550;5.418;2022-12-11T04:28:34;5.10;72.50
32296;DHT22;18781;51.550;5.418;2022-12-11T04:31:00;5.00;72.50
32296;DHT22;18781;51.550;5.418;2022-12-11T04:33:25;5.00;72.50
32296;DHT22;18781;51.550;5.418;2022-12-11T04:35:51;5.00;72.50
32296;DHT22;18781;51.550;5.418;2022-12-11T04:38:16;5.10;72.60
32296;DHT22;18781;51.550;5.418;2022-12-11T04:40:42;5.00;72.40
32296;DHT22;18781;51.550;5.418;2022-12-11T04:43:08;5.10;72.40
32296;DHT22;18781;51.550;5.418;2022-12-11T04:45:33;5.10;72.40
32296;DHT22;18781;51.550;5.418;2022-12-11T04:47:59;5.10;72.40
32296;DHT22;18781;51.550;5.418;2022-12-11T04:50:25;5.10;72.20
32296;DHT22;18781;51.550;5.418;2022-12-11T04:52:53;5.00;72.10
32296;DHT22;18781;51.550;5.418;2022-12-11T04:55:19;5.10;72.10
32296;DHT22;18781;51.550;5.418;2022-12-11T04:57:45;5.00;72.10
32296;DHT22;18781;51.550;5.418;2022-12-11T05:00:11;5.00;72.20
32296;DHT22;18781;51.550;5.418;2022-12-11T05:02:38;5.00;72.20
32296;DHT22;18781;51.550;5.418;2022-12-11T05:05:05;5.10;72.20
32296;DHT22;18781;51.550;5.418;2022-12-11T05:07:31;5.00;72.20
32296;DHT22;18781;51.550;5.418;2022-12-11T05:09:56;5.10;72.20
32296;DHT22;18781;51.550;5.418;2022-12-11T05:12:22;5.10;72.70
32296;DHT22;18781;51.550;5.418;2022-12-11T05:14:51;5.10;72.10
32296;DHT22;18781;51.550;5.418;2022-12-11T05:17:17;5.10;72.10
32296;DHT22;18781;51.550;5.418;2022-12-11T05:19:43;5.10;72.10
32296;DHT22;18781;51.550;5.418;2022-12-11T05:22:08;5.10;72.10
32296;DHT22;18781;51.550;5.418;2022-12-11T05:24:34;5.10;72.00
32296;DHT22;18781;51.550;5.418;2022-12-11T05:26:59;5.10;72.00
32296;DHT22;18781;51.550;5.418;2022-12-11T05:29:25;5.10;72.00
32296;DHT22;18781;51.550;5.418;2022-12-11T05:31:50;5.10;72.00
32296;DHT22;18781;51.550;5.418;2022-12-11T05:34:16;5.10;71.80
32296;DHT22;18781;51.550;5.418;2022-12-11T05:36:41;5.10;71.80
32296;DHT22;18781;51.550;5.418;2022-12-11T05:39:07;5.10;71.80
32296;DHT22;18781;51.550;5.418;2022-12-11T05:41:34;5.10;71.60
32296;DHT22;18781;51.550;5.418;2022-12-11T05:43:59;5.10;71.60
32296;DHT22;18781;51.550;5.418;2022-12-11T05:46:27;5.10;71.50
32296;DHT22;18781;51.550;5.418;2022-12-11T05:48:55;5.10;71.50
32296;DHT22;18781;51.550;5.418;2022-12-11T05:51:22;5.10;71.40
32296;DHT22;18781;51.550;5.418;2022-12-11T05:53:49;5.10;71.40
32296;DHT22;18781;51.550;5.418;2022-12-11T05:56:17;5.10;71.40
32296;DHT22;18781;51.550;5.418;2022-12-11T05:58:45;5.10;71.40
32296;DHT22;18781;51.550;5.418;2022-12-11T06:01:38;5.00;71.40
32296;DHT22;18781;51.550;5.418;2022-12-11T06:04:05;5.00;71.20
32296;DHT22;18781;51.550;5.418;2022-12-11T06:06:31;5.00;71.20
32296;DHT22;18781;51.550;5.418;2022-12-11T06:08:58;5.10;71.30
32296;DHT22;18781;51.550;5.418;2022-12-11T06:11:26;5.10;71.40
32296;DHT22;18781;51.550;5.418;2022-12-11T06:13:52;5.10;71.50
32296;DHT22;18781;51.550;5.418;2022-12-11T06:16:19;5.00;71.40
32296;DHT22;18781;51.550;5.418;2022-12-11T06:18:45;5.00;71.40
32296;DHT22;18781;51.550;5.418;2022-12-11T06:23:44;5.10;71.30
32296;DHT22;18781;51.550;5.418;2022-12-11T06:26:10;5.10;71.40
32296;DHT22;18781;51.550;5.418;2022-12-11T06:28:36;5.10;71.30
32296;DHT22;18781;51.550;5.418;2022-12-11T06:31:02;5.10;71.40
32296;DHT22;18781;51.550;5.418;2022-12-11T06:33:28;5.10;71.50
32296;DHT22;18781;51.550;5.418;2022-12-11T06:35:55;5.10;71.50
32296;DHT22;18781;51.550;5.418;2022-12-11T06:38:21;5.10;71.40
32296;DHT22;18781;51.550;5.418;2022-12-11T06:40:54;5.10;71.40
32296;DHT22;18781;51.550;5.418;2022-12-11T06:43:20;5.10;71.30
32296;DHT22;18781;51.550;5.418;2022-12-11T06:45:46;5.10;71.40
32296;DHT22;18781;51.550;5.418;2022-12-11T06:48:12;5.10;71.40
32296;DHT22;18781;51.550;5.418;2022-12-11T06:50:38;5.20;71.50
32296;DHT22;18781;51.550;5.418;2022-12-11T06:53:03;5.20;71.40
32296;DHT22;18781;51.550;5.418;2022-12-11T06:55:29;5.20;71.40
32296;DHT22;18781;51.550;5.418;2022-12-11T06:57:55;5.20;71.40
32296;DHT22;18781;51.550;5.418;2022-12-11T07:00:20;5.20;71.30
32296;DHT22;18781;51.550;5.418;2022-12-11T07:02:46;5.20;71.30
32296;DHT22;18781;51.550;5.418;2022-12-11T07:05:11;5.20;71.20
32296;DHT22;18781;51.550;5.418;2022-12-11T07:07:37;5.20;71.20
32296;DHT22;18781;51.550;5.418;2022-12-11T07:10:03;5.20;71.20
32296;DHT22;18781;51.550;5.418;2022-12-11T07:12:29;5.20;71.20
32296;DHT22;18781;51.550;5.418;2022-12-11T07:14:55;5.20;71.10
32296;DHT22;18781;51.550;5.418;2022-12-11T07:17:21;5.20;71.10
32296;DHT22;18781;51.550;5.418;2022-12-11T07:19:47;5.20;71.10
32296;DHT22;18781;51.550;5.418;2022-12-11T07:22:12;5.30;71.00
32296;DHT22;18781;51.550;5.418;2022-12-11T07:24:38;5.30;70.90
32296;DHT22;18781;51.550;5.418;2022-12-11T07:27:03;5.20;70.70
32296;DHT22;18781;51.550;5.418;2022-12-11T07:29:29;5.20;70.60
32296;DHT22;18781;51.550;5.418;2022-12-11T07:31:55;5.20;70.50
32296;DHT22;18781;51.550;5.418;2022-12-11T07:34:20;5.20;70.60
32296;DHT22;18781;51.550;5.418;2022-12-11T07:36:46;5.20;70.60
32296;DHT22;18781;51.550;5.418;2022-12-11T07:39:12;5.20;70.60
32296;DHT22;18781;51.550;5.418;2022-12-11T07:41:38;5.10;70.70
32296;DHT22;18781;51.550;5.418;2022-12-11T07:44:03;5.20;70.80
32296;DHT22;18781;51.550;5.418;2022-12-11T07:46:31;5.20;70.70
32296;DHT22;18781;51.550;5.418;2022-12-11T07:48:57;5.20;70.80
32296;DHT22;18781;51.550;5.418;2022-12-11T07:51:28;5.10;70.80
32296;DHT22;18781;51.550;5.418;2022-12-11T07:53:57;5.20;70.90
32296;DHT22;18781;51.550;5.418;2022-12-11T07:56:23;5.20;70.90
32296;DHT22;18781;51.550;5.418;2022-12-11T07:58:49;5.20;70.90
32296;DHT22;18781;51.550;5.418;2022-12-11T08:01:19;5.20;71.00
32296;DHT22;18781;51.550;5.418;2022-12-11T08:03:46;5.20;70.90
32296;DHT22;18781;51.550;5.418;2022-12-11T08:06:12;5.20;70.90
32296;DHT22;18781;51.550;5.418;2022-12-11T08:08:38;5.20;70.90
32296;DHT22;18781;51.550;5.418;2022-12-11T08:11:08;5.20;70.90
32296;DHT22;18781;51.550;5.418;2022-12-11T08:13:34;5.30;70.90
32296;DHT22;18781;51.550;5.418;2022-12-11T08:16:04;5.20;70.90
32296;DHT22;18781;51.550;5.418;2022-12-11T08:18:31;5.30;70.90
32296;DHT22;18781;51.550;5.418;2022-12-11T08:20:57;5.30;70.90
32296;DHT22;18781;51.550;5.418;2022-12-11T08:23:22;5.30;70.90
32296;DHT22;18781;51.550;5.418;2022-12-11T08:25:48;5.30;70.90
32296;DHT22;18781;51.550;5.418;2022-12-11T08:28:13;5.30;70.90
32296;DHT22;18781;51.550;5.418;2022-12-11T08:30:39;5.30;70.90
32296;DHT22;18781;51.550;5.418;2022-12-11T08:33:05;5.30;70.90
32296;DHT22;18781;51.550;5.418;2022-12-11T08:35:31;5.30;70.90
32296;DHT22;18781;51.550;5.418;2022-12-11T08:37:56;5.30;70.90
32296;DHT22;18781;51.550;5.418;2022-12-11T08:40:22;5.20;70.90
32296;DHT22;18781;51.550;5.418;2022-12-11T08:42:47;5.30;70.90
32296;DHT22;18781;51.550;5.418;2022-12-11T08:45:13;5.30;70.90
32296;DHT22;18781;51.550;5.418;2022-12-11T08:47:38;5.30;70.90
32296;DHT22;18781;51.550;5.418;2022-12-11T08:50:04;5.30;70.80
32296;DHT22;18781;51.550;5.418;2022-12-11T08:52:30;5.30;70.80
32296;DHT22;18781;51.550;5.418;2022-12-11T08:54:58;5.30;70.70
32296;DHT22;18781;51.550;5.418;2022-12-11T08:57:23;5.30;70.70
32296;DHT22;18781;51.550;5.418;2022-12-11T08:59:49;5.30;70.70
32296;DHT22;18781;51.550;5.418;2022-12-11T09:02:14;5.30;70.70
32296;DHT22;18781;51.550;5.418;2022-12-11T09:04:40;5.30;70.70
32296;DHT22;18781;51.550;5.418;2022-12-11T09:07:06;5.30;70.70
32296;DHT22;18781;51.550;5.418;2022-12-11T09:09:31;5.30;70.70
32296;DHT22;18781;51.550;5.418;2022-12-11T09:11:57;5.30;70.70
32296;DHT22;18781;51.550;5.418;2022-12-11T09:14:23;5.30;70.70
32296;DHT22;18781;51.550;5.418;2022-12-11T09:16:49;5.30;70.70
32296;DHT22;18781;51.550;5.418;2022-12-11T09:19:14;5.30;70.60
32296;DHT22;18781;51.550;5.418;2022-12-11T09:21:42;5.30;70.60
32296;DHT22;18781;51.550;5.418;2022-12-11T09:24:10;5.30;70.60
32296;DHT22;18781;51.550;5.418;2022-12-11T09:26:36;5.30;70.50
32296;DHT22;18781;51.550;5.418;2022-12-11T09:29:03;5.30;70.60
32296;DHT22;18781;51.550;5.418;2022-12-11T09:31:31;5.30;70.60
32296;DHT22;18781;51.550;5.418;2022-12-11T09:34:00;5.30;70.60
32296;DHT22;18781;51.550;5.418;2022-12-11T09:36:27;5.30;70.70
32296;DHT22;18781;51.550;5.418;2022-12-11T09:38:53;5.30;70.70
32296;DHT22;18781;51.550;5.418;2022-12-11T09:47:31;5.30;70.50
32296;DHT22;18781;51.550;5.418;2022-12-11T09:50:15;5.30;70.40
32296;DHT22;18781;51.550;5.418;2022-12-11T09:53:01;5.30;70.30
32296;DHT22;18781;51.550;5.418;2022-12-11T09:55:38;5.30;70.20
32296;DHT22;18781;51.550;5.418;2022-12-11T09:58:35;5.30;70.40
32296;DHT22;18781;51.550;5.418;2022-12-11T10:09:38;5.30;70.40
32296;DHT22;18781;51.550;5.418;2022-12-11T10:17:19;5.30;70.60
32296;DHT22;18781;51.550;5.418;2022-12-11T10:19:45;5.30;70.50
32296;DHT22;18781;51.550;5.418;2022-12-11T10:22:21;5.30;70.70
32296;DHT22;18781;51.550;5.418;2022-12-11T10:24:56;5.30;70.70
32296;DHT22;18781;51.550;5.418;2022-12-11T10:27:27;5.30;70.60
32296;DHT22;18781;51.550;5.418;2022-12-11T10:32:47;5.40;70.60
32296;DHT22;18781;51.550;5.418;2022-12-11T10:35:30;5.40;70.60
32296;DHT22;18781;51.550;5.418;2022-12-11T10:38:21;5.40;70.40
32296;DHT22;18781;51.550;5.418;2022-12-11T10:43:43;5.40;70.20
32296;DHT22;18781;51.550;5.418;2022-12-11T10:46:24;5.40;70.40
32296;DHT22;18781;51.550;5.418;2022-12-11T10:48:54;5.40;70.20
32296;DHT22;18781;51.550;5.418;2022-12-11T10:51:20;5.40;70.40
32296;DHT22;18781;51.550;5.418;2022-12-11T10:53:54;5.40;70.50
32296;DHT22;18781;51.550;5.418;2022-12-11T10:56:28;5.40;70.10
32296;DHT22;18781;51.550;5.418;2022-12-11T10:58:55;5.40;70.10
32296;DHT22;18781;51.550;5.418;2022-12-11T11:01:24;5.40;70.30
32296;DHT22;18781;51.550;5.418;2022-12-11T11:04:04;5.40;70.30
32296;DHT22;18781;51.550;5.418;2022-12-11T11:06:32;5.40;70.30
32296;DHT22;18781;51.550;5.418;2022-12-11T11:08:59;5.40;70.20
32296;DHT22;18781;51.550;5.418;2022-12-11T11:11:32;5.40;70.30
32296;DHT22;18781;51.550;5.418;2022-12-11T11:16:42;5.40;70.20
32296;DHT22;18781;51.550;5.418;2022-12-11T11:19:18;5.40;70.30
32296;DHT22;18781;51.550;5.418;2022-12-11T11:21:51;5.50;70.30
32296;DHT22;18781;51.550;5.418;2022-12-11T11:26:52;5.50;70.00
32296;DHT22;18781;51.550;5.418;2022-12-11T11:29:31;5.50;70.30
32296;DHT22;18781;51.550;5.418;2022-12-11T11:32:23;5.50;70.20
32296;DHT22;18781;51.550;5.418;2022-12-11T11:34:50;5.50;69.90
32296;DHT22;18781;51.550;5.418;2022-12-11T11:37:34;5.50;70.10
32296;DHT22;18781;51.550;5.418;2022-12-11T11:40:50;5.50;69.90
32296;DHT22;18781;51.550;5.418;2022-12-11T11:54:29;5.60;69.70
32296;DHT22;18781;51.550;5.418;2022-12-11T11:56:56;5.50;69.80
32296;DHT22;18781;51.550;5.418;2022-12-11T11:59:30;5.60;70.70
32296;DHT22;18781;51.550;5.418;2022-12-11T12:01:59;5.60;70.10
32296;DHT22;18781;51.550;5.418;2022-12-11T12:04:30;5.60;70.00
32296;DHT22;18781;51.550;5.418;2022-12-11T12:07:06;5.60;69.90
32296;DHT22;18781;51.550;5.418;2022-12-11T12:15:27;5.70;69.70
32296;DHT22;18781;51.550;5.418;2022-12-11T12:18:21;5.70;70.40
32296;DHT22;18781;51.550;5.418;2022-12-11T12:21:11;5.70;69.70
32296;DHT22;18781;51.550;5.418;2022-12-11T12:26:57;5.70;69.50
32296;DHT22;18781;51.550;5.418;2022-12-11T12:29:46;5.80;69.40
32296;DHT22;18781;51.550;5.418;2022-12-11T12:32:47;5.80;69.80
32296;DHT22;18781;51.550;5.418;2022-12-11T12:35:34;5.80;69.50
32296;DHT22;18781;51.550;5.418;2022-12-11T12:38:14;5.80;69.60
32296;DHT22;18781;51.550;5.418;2022-12-11T12:41:16;5.80;69.50
32296;DHT22;18781;51.550;5.418;2022-12-11T12:52:01;5.90;69.50
32296;DHT22;18781;51.550;5.418;2022-12-11T12:54:29;5.90;69.60
32296;DHT22;18781;51.550;5.418;2022-12-11T12:56:57;5.90;69.40
32296;DHT22;18781;51.550;5.418;2022-12-11T12:59:26;6.00;69.40
32296;DHT22;18781;51.550;5.418;2022-12-11T13:01:57;6.00;69.30
32296;DHT22;18781;51.550;5.418;2022-12-11T13:04:37;6.00;69.00
32296;DHT22;18781;51.550;5.418;2022-12-11T13:07:17;6.00;68.90
32296;DHT22;18781;51.550;5.418;2022-12-11T13:09:55;6.00;68.70
32296;DHT22;18781;51.550;5.418;2022-12-11T13:12:39;6.00;68.80
32296;DHT22;18781;51.550;5.418;2022-12-11T13:17:50;6.00;68.60
32296;DHT22;18781;51.550;5.418;2022-12-11T13:20:18;6.00;68.80
32296;DHT22;18781;51.550;5.418;2022-12-11T13:22:51;6.00;68.40
32296;DHT22;18781;51.550;5.418;2022-12-11T13:25:45;6.00;68.30
32296;DHT22;18781;51.550;5.418;2022-12-11T13:28:22;6.00;68.10
32296;DHT22;18781;51.550;5.418;2022-12-11T13:30:58;6.00;68.20
32296;DHT22;18781;51.550;5.418;2022-12-11T13:33:24;6.00;68.10
32296;DHT22;18781;51.550;5.418;2022-12-11T13:36:49;6.00;68.60
32296;DHT22;18781;51.550;5.418;2022-12-11T13:38:50;6.00;68.30
32296;DHT22;18781;51.550;5.418;2022-12-11T13:41:18;6.00;68.70
32296;DHT22;18781;51.550;5.418;2022-12-11T13:43:46;6.00;68.60
32296;DHT22;18781;51.550;5.418;2022-12-11T13:46:13;6.00;68.50
32296;DHT22;18781;51.550;5.418;2022-12-11T13:48:53;6.00;69.00
32296;DHT22;18781;51.550;5.418;2022-12-11T13:51:23;6.00;68.00
32296;DHT22;18781;51.550;5.418;2022-12-11T13:54:05;6.00;68.30
32296;DHT22;18781;51.550;5.418;2022-12-11T13:56:32;6.00;68.00
32296;DHT22;18781;51.550;5.418;2022-12-11T13:58:58;6.00;68.40
32296;DHT22;18781;51.550;5.418;2022-12-11T14:01:29;6.00;68.40
32296;DHT22;18781;51.550;5.418;2022-12-11T14:04:08;6.00;68.20
32296;DHT22;18781;51.550;5.418;2022-12-11T14:06:35;6.00;67.60
32296;DHT22;18781;51.550;5.418;2022-12-11T14:09:02;6.00;68.00
32296;DHT22;18781;51.550;5.418;2022-12-11T14:11:40;6.00;68.00
32296;DHT22;18781;51.550;5.418;2022-12-11T14:14:18;6.00;67.70
32296;DHT22;18781;51.550;5.418;2022-12-11T14:16:46;6.00;67.70
32296;DHT22;18781;51.550;5.418;2022-12-11T14:19:15;6.00;67.90
32296;DHT22;18781;51.550;5.418;2022-12-11T14:21:41;6.00;68.00
32296;DHT22;18781;51.550;5.418;2022-12-11T14:24:11;6.00;68.00
32296;DHT22;18781;51.550;5.418;2022-12-11T14:26:37;5.90;67.70
32296;DHT22;18781;51.550;5.418;2022-12-11T14:29:03;5.90;67.80
32296;DHT22;18781;51.550;5.418;2022-12-11T14:31:34;5.90;67.80
32296;DHT22;18781;51.550;5.418;2022-12-11T14:34:16;5.90;67.40
32296;DHT22;18781;51.550;5.418;2022-12-11T14:36:44;5.90;67.00
32296;DHT22;18781;51.550;5.418;2022-12-11T14:39:13;5.90;67.50
32296;DHT22;18781;51.550;5.418;2022-12-11T14:44:45;5.90;66.90
32296;DHT22;18781;51.550;5.418;2022-12-11T14:47:17;5.80;67.30
32296;DHT22;18781;51.550;5.418;2022-12-11T14:50:10;5.80;67.20
32296;DHT22;18781;51.550;5.418;2022-12-11T14:52:47;5.80;67.10
32296;DHT22;18781;51.550;5.418;2022-12-11T14:55:28;5.80;67.40
32296;DHT22;18781;51.550;5.418;2022-12-11T14:57:58;5.80;67.30
32296;DHT22;18781;51.550;5.418;2022-12-11T15:00:30;5.80;67.40
32296;DHT22;18781;51.550;5.418;2022-12-11T15:05:51;5.70;67.10
32296;DHT22;18781;51.550;5.418;2022-12-11T15:08:20;5.80;67.00
32296;DHT22;18781;51.550;5.418;2022-12-11T15:11:08;5.70;67.30
32296;DHT22;18781;51.550;5.418;2022-12-11T15:13:38;5.70;66.80
32296;DHT22;18781;51.550;5.418;2022-12-11T15:16:06;5.70;67.30
32296;DHT22;18781;51.550;5.418;2022-12-11T15:18:33;5.70;67.20
32296;DHT22;18781;51.550;5.418;2022-12-11T15:21:02;5.70;67.20
32296;DHT22;18781;51.550;5.418;2022-12-11T15:23:31;5.70;67.10
32296;DHT22;18781;51.550;5.418;2022-12-11T15:26:00;5.70;67.10
32296;DHT22;18781;51.550;5.418;2022-12-11T15:28:28;5.60;66.90
32296;DHT22;18781;51.550;5.418;2022-12-11T15:31:00;5.60;67.00
32296;DHT22;18781;51.550;5.418;2022-12-11T15:33:26;5.60;66.90
32296;DHT22;18781;51.550;5.418;2022-12-11T15:36:18;5.60;67.10
32296;DHT22;18781;51.550;5.418;2022-12-11T15:38:45;5.60;66.80
32296;DHT22;18781;51.550;5.418;2022-12-11T15:41:16;5.60;67.10
32296;DHT22;18781;51.550;5.418;2022-12-11T15:43:42;5.50;66.80
32296;DHT22;18781;51.550;5.418;2022-12-11T15:46:09;5.50;66.90
32296;DHT22;18781;51.550;5.418;2022-12-11T15:48:34;5.50;66.90
32296;DHT22;18781;51.550;5.418;2022-12-11T15:51:00;5.50;67.00
32296;DHT22;18781;51.550;5.418;2022-12-11T15:53:25;5.50;67.00
32296;DHT22;18781;51.550;5.418;2022-12-11T15:55:51;5.50;67.00
32296;DHT22;18781;51.550;5.418;2022-12-11T15:58:19;5.50;67.10
32296;DHT22;18781;51.550;5.418;2022-12-11T16:00:45;5.50;67.10
32296;DHT22;18781;51.550;5.418;2022-12-11T16:03:13;5.50;67.10
32296;DHT22;18781;51.550;5.418;2022-12-11T16:05:39;5.50;67.00
32296;DHT22;18781;51.550;5.418;2022-12-11T16:08:05;5.50;67.00
32296;DHT22;18781;51.550;5.418;2022-12-11T16:10:31;5.50;67.00
32296;DHT22;18781;51.550;5.418;2022-12-11T16:12:56;5.50;66.90
32296;DHT22;18781;51.550;5.418;2022-12-11T16:15:24;5.50;66.90
32296;DHT22;18781;51.550;5.418;2022-12-11T16:18:02;5.50;66.80
32296;DHT22;18781;51.550;5.418;2022-12-11T16:20:29;5.50;66.60
32296;DHT22;18781;51.550;5.418;2022-12-11T16:22:56;5.50;66.90
32296;DHT22;18781;51.550;5.418;2022-12-11T16:25:22;5.50;67.00
32296;DHT22;18781;51.550;5.418;2022-12-11T16:27:47;5.50;67.00
32296;DHT22;18781;51.550;5.418;2022-12-11T16:30:13;5.50;67.00
32296;DHT22;18781;51.550;5.418;2022-12-11T16:32:39;5.50;66.80
32296;DHT22;18781;51.550;5.418;2022-12-11T16:35:05;5.40;66.80
32296;DHT22;18781;51.550;5.418;2022-12-11T16:37:30;5.40;66.70
32296;DHT22;18781;51.550;5.418;2022-12-11T16:39:56;5.40;66.80
32296;DHT22;18781;51.550;5.418;2022-12-11T16:42:22;5.40;66.90
32296;DHT22;18781;51.550;5.418;2022-12-11T16:44:47;5.40;66.90
32296;DHT22;18781;51.550;5.418;2022-12-11T16:47:13;5.40;66.90
32296;DHT22;18781;51.550;5.418;2022-12-11T16:49:39;5.40;66.90
32296;DHT22;18781;51.550;5.418;2022-12-11T16:52:05;5.30;66.80
32296;DHT22;18781;51.550;5.418;2022-12-11T16:54:31;5.30;66.90
32296;DHT22;18781;51.550;5.418;2022-12-11T16:56:56;5.30;67.10
32296;DHT22;18781;51.550;5.418;2022-12-11T16:59:22;5.30;67.00
32296;DHT22;18781;51.550;5.418;2022-12-11T17:01:47;5.30;67.10
32296;DHT22;18781;51.550;5.418;2022-12-11T17:04:15;5.30;67.10
32296;DHT22;18781;51.550;5.418;2022-12-11T17:06:40;5.30;67.10
32296;DHT22;18781;51.550;5.418;2022-12-11T17:09:06;5.30;67.10
32296;DHT22;18781;51.550;5.418;2022-12-11T17:11:31;5.30;67.10
32296;DHT22;18781;51.550;5.418;2022-12-11T17:13:58;5.30;67.10
32296;DHT22;18781;51.550;5.418;2022-12-11T17:16:25;5.30;67.10
32296;DHT22;18781;51.550;5.418;2022-12-11T17:18:54;5.30;66.90
32296;DHT22;18781;51.550;5.418;2022-12-11T17:21:21;5.30;66.90
32296;DHT22;18781;51.550;5.418;2022-12-11T17:23:47;5.30;66.90
32296;DHT22;18781;51.550;5.418;2022-12-11T17:26:14;5.30;66.90
32296;DHT22;18781;51.550;5.418;2022-12-11T17:28:40;5.30;66.90
32296;DHT22;18781;51.550;5.418;2022-12-11T17:31:07;5.30;66.90